Montrose, CO

8:42 PM MST on November 27, 2014 (GMT -0700)
Gunnison County | Change Station
CLOSE
Current Station
Airport
Location: Gunnison,
Elevation: 7674 ft
Nearby Weather Stations
Active Advisory: Special Weather Statement

Elev 7674 ft 38.53 °N, 106.93 °W | Updated 7 minutes ago

Clear
Clear
23 °F
Feels Like 23 °F
N
0
Wind Variable Wind from North

Today
High -- | Low -- °F
--% Chance of Precip.
Yesterday
High -- | Low -- °F
Precip. -- in
7:05 AM 4:52 PM
Waxing Crescent, 36% visible
Pressure 30.44 in
Visibility 10.0 miles
Clouds Clear
Dew Point 16 °F
Humidity 74%
Rainfall 0.00 in
Snow Depth Not available.
UV 0 out of 12
Pollen .10 out of 12
Air Quality Not available.
Flu Activity Not available.
METAR KGUC 280335Z AUTO 00000KT 10SM CLR M05/M09 A3044 RMK AO1

More Conditions Fewer Conditions

Pressure 30.44 in
Visibility 10.0 miles
Clouds Clear
Dew Point 16 °F
Humidity 74%
Rainfall 0.00 in
Snow Depth Not available.
UV 0 out of 12
Pollen .10 out of 12
Air Quality Not available.
Flu Activity Not available.
METAR KGUC 280335Z AUTO 00000KT 10SM CLR M05/M09 A3044 RMK AO1

More Conditions Fewer Conditions

10-Day Weather Forecast

Almanac

Astronomy

Nov. 27, 2014 Rise Set
Actual Time
Civil Twilight
Nautical Twilight
Astronomical Twilight
Moon
Length of Visible Light
Length of Day
Tomorrow will be .
, % of the Moon is Illuminated

Today's Extremes

State Highs State Lows

Community

WunderPhotos

Upload Photos

1,774,169 photos uploaded!

WunderBlogs® & News

Nearby

Air Quality

  Air Quality AQ Index Pollutant
Not available.

Snow Depth

Station Depth Elevation

Earthquake Activity

City Distance Mag. Time & Date
Minimum magnitude displayed is 2.5.

Coastal Water Temperatures

Place Temperature

Nearby Weather Stations